Flight Track Log - Related Links

Times and Time Zones

All times are in EDT time to prevent confusion due to time zone crossing. See the CHQ4986 flight status page for this flight to view local times or setup timezone preferences in your user account.

Time Position Orientation Groundspeed Altitude Reporting Facility
EDT Latitude Longitude Course Direction KTS MPH feet Rate Location/Type
Thu 02:31:13 PM 41.7392 -71.4192 294° West 165 190 600  Level Boston Center
Thu 02:31:44 PM 41.7581 -71.4189 North 170 196 1,500 1,541 Climbing Boston Center
Thu 02:32:27 PM 41.7956 -71.4292 348° North 229 264 2,500 1,700 Climbing Boston Center
Thu 02:32:44 PM 41.8208 -71.4400 342° North 219 252 3,200 2,100 Climbing Boston Center
Thu 02:33:27 PM 41.8503 -71.4842 312° West 250 288 4,600 1,967 Climbing Boston Center
Thu 02:33:45 PM 41.8589 -71.5147 291° West 255 293 5,200 2,000 Climbing Boston Center
Thu 02:34:00 PM 41.9500 -71.8600 270° West  Level FlightAware Approximate
Thu 02:34:27 PM 41.8761 -71.5647 295° West 288 331 6,600  Level Boston Center
Thu 02:35:00 PM 41.9878 -71.9894 293° West  Level FlightAware Approximate
Thu 02:35:27 PM 41.9036 -71.6564 292° West 280 322 8,700  Level Boston Center
Thu 02:36:00 PM 42.0283 -72.1180 294° West  Level FlightAware Approximate
Thu 02:36:27 PM 41.9336 -71.7647 290° West 275 316 10,900  Level Boston Center
Thu 02:37:27 PM 41.9611 -71.8594 291° West 293 337 12,100 1,350 Climbing Boston Center
Thu 02:38:27 PM 41.9953 -71.9764 291° West 322 371 13,600 1,550 Climbing Boston Center
Thu 02:39:27 PM 42.0353 -72.1047 293° West 335 386 15,200 1,500 Climbing Boston Center
Thu 02:40:27 PM 42.0689 -72.2081 294° West 335 386 16,600 1,400 Climbing Boston Center
Thu 02:41:27 PM 42.1106 -72.3450 292° West 341 392 18,000 1,300 Climbing Boston Center
Thu 02:42:27 PM 42.1461 -72.4708 291° West 360 414 19,200 1,200 Climbing Boston Center
Thu 02:43:27 PM 42.1878 -72.6053 293° West 372 428 20,400 1,200 Climbing Boston Center
Thu 02:44:27 PM 42.2269 -72.7344 292° West 377 434 21,600 1,200 Climbing Boston Center
Thu 02:45:27 PM 42.2683 -72.8722 292° West 382 440 22,800 1,100 Climbing Boston Center
Thu 02:46:27 PM 42.3094 -73.0100 292° West 394 453 23,800 1,000 Climbing Boston Center
Thu 02:47:27 PM 42.3503 -73.1425 293° West 394 453 24,800 955 Climbing Boston Center
Thu 02:48:39 PM 42.3889 -73.2806 291° West 389 448 25,900 1,045 Climbing Boston Center
Thu 02:49:39 PM 42.4333 -73.4528 289° West 404 465 27,100 1,100 Climbing Boston Center
Thu 02:50:39 PM 42.4717 -73.5886 291° West 404 465 28,100 1,050 Climbing Boston Center
Thu 02:51:39 PM 42.5097 -73.7272 290° West 399 459 29,200 950 Climbing Boston Center
Thu 02:52:39 PM 42.5478 -73.8633 291° West 394 453 30,000 800 Climbing Boston Center
Thu 02:53:39 PM 42.5875 -74.0053 291° West 394 453 30,800 750 Climbing Boston Center
Thu 02:54:39 PM 42.6192 -74.1331 289° West 393 452 31,500 545 Climbing Boston Center
Thu 02:55:51 PM 42.6686 -74.3067 291° West 404 465 32,000 227 Climbing Boston Center
Thu 02:56:51 PM 42.7075 -74.4603 289° West 416 479 32,000  Level Boston Center
Thu 02:57:51 PM 42.7506 -74.6144 291° West 427 491 32,000 -50 Level Boston Center
Thu 02:58:51 PM 42.7933 -74.7717 290° West 434 499 31,900  Descending Boston Center
Thu 02:59:51 PM 42.8375 -74.9431 289° West 434 499 32,000  Climbing Boston Center
Thu 03:00:51 PM 42.8781 -75.0978 290° West 434 499 31,900  Descending Boston Center
Thu 03:01:51 PM 42.9178 -75.2556 289° West 434 499 32,000 50 Climbing Boston Center
Thu 03:02:51 PM 42.9597 -75.4136 290° West 434 499 32,000  Level Boston Center
Thu 03:03:51 PM 43.0014 -75.5689 290° West 434 499 32,000  Level Boston Center
Thu 03:04:51 PM 43.0261 -75.7319 282° West 434 499 32,000  Level Boston Center
Thu 03:05:51 PM 43.0086 -75.9017 262° West 434 499 32,000  Level Boston Center
Thu 03:07:58 PM 42.9744 -76.2356 262° West 448 516 32,000  Level Cleveland Center
Thu 03:08:58 PM 42.9600 -76.4039 263° West 448 516 32,000 -50 Level Cleveland Center
Thu 03:09:58 PM 42.9408 -76.5697 261° West 448 516 31,900  Descending Cleveland Center
Thu 03:10:58 PM 42.9219 -76.7525 262° West 448 516 32,000 50 Climbing Cleveland Center
Thu 03:11:58 PM 42.9064 -76.9150 263° West 448 516 32,000  Level Cleveland Center
Thu 03:12:58 PM 42.8781 -77.0783 257° West 448 516 32,000  Level Cleveland Center
Thu 03:13:58 PM 42.8158 -77.2261 240° Southwest 442 509 32,000  Level Cleveland Center
Thu 03:14:58 PM 42.7533 -77.3739 240° Southwest 447 514 32,000  Level Cleveland Center
Thu 03:15:58 PM 42.6925 -77.5153 240° Southwest 452 520 32,000  Level Cleveland Center
Thu 03:16:58 PM 42.6356 -77.6481 240° Southwest 452 520 32,000  Level Cleveland Center
Thu 03:17:58 PM 42.5744 -77.7947 241° Southwest 452 520 32,000  Level Cleveland Center
Thu 03:18:58 PM 42.5111 -77.9353 239° Southwest 452 520 32,000  Level Cleveland Center
Thu 03:19:58 PM 42.4497 -78.0786 240° Southwest 452 520 32,000  Level Cleveland Center
Thu 03:20:58 PM 42.3881 -78.2189 239° Southwest 447 514 32,000  Level Cleveland Center
Thu 03:21:58 PM 42.3242 -78.3617 239° Southwest 447 514 32,000  Level Cleveland Center
Thu 03:22:58 PM 42.2642 -78.4986 239° Southwest 447 514 32,000  Level Cleveland Center
Thu 03:23:58 PM 42.2019 -78.6408 239° Southwest 442 509 32,000  Level Cleveland Center
Thu 03:24:58 PM 42.1397 -78.7797 239° Southwest 442 509 32,000 -150 Level Cleveland Center
Thu 03:25:58 PM 42.0692 -78.9383 239° Southwest 437 503 31,700 -650 Descending Cleveland Center
Thu 03:26:58 PM 42.0022 -79.0800 238° Southwest 444 511 30,700 -950 Descending Cleveland Center
Thu 03:27:58 PM 41.9475 -79.2039 239° Southwest 452 520 29,800 -1,000 Descending Cleveland Center
Thu 03:28:58 PM 41.8806 -79.3561 239° Southwest 446 513 28,700 -1,050 Descending Cleveland Center
Thu 03:29:58 PM 41.8131 -79.4967 237° Southwest 441 507 27,700 -900 Descending Cleveland Center
Thu 03:30:58 PM 41.7600 -79.6144 239° Southwest 449 517 26,900 -1,000 Descending Cleveland Center
Thu 03:31:58 PM 41.6861 -79.7742 238° Southwest 461 531 25,700 -1,150 Descending Cleveland Center
Thu 03:32:58 PM 41.6142 -79.9250 237° Southwest 456 525 24,600 -950 Descending Cleveland Center
Thu 03:33:58 PM 41.5503 -80.0672 239° Southwest 450 518 23,800 -900 Descending Cleveland Center
Thu 03:34:58 PM 41.4861 -80.2061 238° Southwest 450 518 22,800 -1,000 Descending Cleveland Center
Thu 03:35:58 PM 41.4636 -80.3586 259° West 420 483 21,800 -1,550 Descending Cleveland Center
Thu 03:36:58 PM 41.4764 -80.5083 277° West 413 475 19,700 -2,250 Descending Cleveland Center
Thu 03:37:58 PM 41.4867 -80.6553 275° West 407 468 17,300 -2,450 Descending Cleveland Center
Thu 03:38:58 PM 41.4950 -80.7939 275° West 395 455 14,800 -2,300 Descending Cleveland Center
Thu 03:39:58 PM 41.5031 -80.9297 275° West 384 442 12,700 -2,022 Descending Cleveland Center
Thu 03:40:27 PM 41.5069 -80.9936 275° West 360 414 11,800 -1,700 Descending Cleveland Center
Thu 03:40:58 PM 41.5108 -81.0628 274° West 366 421 11,000 -1,186 Descending Cleveland Center
Thu 03:41:53 PM 41.5081 -81.1819 268° West 361 415 10,100 -500 Descending Cleveland Center
Thu 03:42:58 PM 41.4781 -81.3147 253° West 357 411 10,000  Descending Cleveland Center
Thu 03:43:54 PM 41.4628 -81.4311 260° West 351 404 10,100  Climbing Cleveland Center
Thu 03:44:58 PM 41.4617 -81.5611 269° West 332 382 10,000 -797 Descending Cleveland Center
Thu 03:46:02 PM 41.4192 -81.6547 239° Southwest 268 308 8,400 -1,650 Descending Cleveland Center
Thu 03:46:58 PM 41.3789 -81.7261 233° Southwest 277 319 6,700 -1,810 Descending Cleveland Center
Thu 03:47:58 PM 41.3386 -81.8056 236° Southwest 272 313 4,900 -1,400 Descending Cleveland Center
Thu 03:48:58 PM 41.3022 -81.8822 238° Southwest 262 302 3,900 -950 Descending Cleveland Center
Thu 03:49:58 PM 41.3222 -81.9517 291° West 215 247 3,000 -940 Descending Cleveland Center
Thu 03:51:12 PM 41.3728 -81.9169 27° Northeast 170 196 1,800 -973 Descending Cleveland Center

Login

Don't have an account? Register now (free) for customized features, flight alerts, and more!